sensor_id;sensor_type;location;lat;lon;timestamp;pressure;altitude;pressure_sealevel;temperature;humidity
23016;BME280;11674;52.428;13.584;2022-12-29T00:00:16;100425.91;;;10.00;84.08
23016;BME280;11674;52.428;13.584;2022-12-29T00:05:23;100414.81;;;10.00;83.97
23016;BME280;11674;52.428;13.584;2022-12-29T00:10:30;100412.56;;;10.02;84.06
23016;BME280;11674;52.428;13.584;2022-12-29T00:15:37;100410.59;;;10.08;84.19
23016;BME280;11674;52.428;13.584;2022-12-29T00:20:44;100394.22;;;10.11;84.25
23016;BME280;11674;52.428;13.584;2022-12-29T00:25:51;100387.47;;;10.17;84.22
23016;BME280;11674;52.428;13.584;2022-12-29T00:30:59;100393.25;;;10.21;84.32
23016;BME280;11674;52.428;13.584;2022-12-29T00:41:22;100387.63;;;10.26;84.52
23016;BME280;11674;52.428;13.584;2022-12-29T00:46:29;100383.97;;;10.30;84.61
23016;BME280;11674;52.428;13.584;2022-12-29T00:51:36;100375.06;;;10.33;84.61
23016;BME280;11674;52.428;13.584;2022-12-29T00:56:43;100370.25;;;10.39;84.53
23016;BME280;11674;52.428;13.584;2022-12-29T01:01:53;100376.34;;;10.41;84.45
23016;BME280;11674;52.428;13.584;2022-12-29T01:07:02;100369.88;;;10.45;84.54
23016;BME280;11674;52.428;13.584;2022-12-29T01:12:11;100371.53;;;10.46;84.61
23016;BME280;11674;52.428;13.584;2022-12-29T01:17:18;100362.63;;;10.49;84.52
23016;BME280;11674;52.428;13.584;2022-12-29T01:22:25;100355.03;;;10.55;84.62
23016;BME280;11674;52.428;13.584;2022-12-29T01:27:32;100363.97;;;10.52;84.53
23016;BME280;11674;52.428;13.584;2022-12-29T01:32:39;100350.41;;;10.50;84.51
23016;BME280;11674;52.428;13.584;2022-12-29T01:37:46;100358.94;;;10.54;84.50
23016;BME280;11674;52.428;13.584;2022-12-29T01:42:53;100344.16;;;10.58;84.57
23016;BME280;11674;52.428;13.584;2022-12-29T01:48:03;100358.50;;;10.65;84.44
23016;BME280;11674;52.428;13.584;2022-12-29T01:53:24;100349.97;;;10.62;84.12
23016;BME280;11674;52.428;13.584;2022-12-29T01:58:37;100339.75;;;10.57;84.17
23016;BME280;11674;52.428;13.584;2022-12-29T02:03:45;100331.22;;;10.54;84.15
23016;BME280;11674;52.428;13.584;2022-12-29T02:08:53;100325.66;;;10.54;84.25
23016;BME280;11674;52.428;13.584;2022-12-29T02:14:08;100325.16;;;10.52;84.18
23016;BME280;11674;52.428;13.584;2022-12-29T02:25:24;100314.91;;;10.66;84.28
23016;BME280;11674;52.428;13.584;2022-12-29T02:36:28;100306.34;;;10.81;84.47
23016;BME280;11674;52.428;13.584;2022-12-29T02:41:50;100312.25;;;10.93;84.50
23016;BME280;11674;52.428;13.584;2022-12-29T02:47:09;100293.78;;;11.02;84.33
23016;BME280;11674;52.428;13.584;2022-12-29T02:52:25;100291.13;;;11.10;84.35
23016;BME280;11674;52.428;13.584;2022-12-29T02:57:34;100301.84;;;11.17;84.28
23016;BME280;11674;52.428;13.584;2022-12-29T03:08:13;100298.66;;;11.23;84.25
23016;BME280;11674;52.428;13.584;2022-12-29T03:13:35;100282.72;;;11.29;84.00
23016;BME280;11674;52.428;13.584;2022-12-29T03:19:14;100271.31;;;11.30;84.18
23016;BME280;11674;52.428;13.584;2022-12-29T03:24:25;100256.00;;;11.33;84.25
23016;BME280;11674;52.428;13.584;2022-12-29T03:29:39;100251.13;;;11.38;84.33
23016;BME280;11674;52.428;13.584;2022-12-29T03:34:49;100251.38;;;11.42;84.18
23016;BME280;11674;52.428;13.584;2022-12-29T03:39:57;100254.84;;;11.47;84.14
23016;BME280;11674;52.428;13.584;2022-12-29T03:45:04;100255.38;;;11.49;84.17
23016;BME280;11674;52.428;13.584;2022-12-29T03:50:13;100253.94;;;11.52;84.26
23016;BME280;11674;52.428;13.584;2022-12-29T03:55:20;100255.59;;;11.53;84.28
23016;BME280;11674;52.428;13.584;2022-12-29T04:00:28;100243.03;;;11.55;84.52
23016;BME280;11674;52.428;13.584;2022-12-29T04:05:35;100250.72;;;11.58;84.40
23016;BME280;11674;52.428;13.584;2022-12-29T04:10:42;100256.84;;;11.60;84.62
23016;BME280;11674;52.428;13.584;2022-12-29T04:15:50;100253.13;;;11.65;84.39
23016;BME280;11674;52.428;13.584;2022-12-29T04:20:57;100245.94;;;11.64;84.69
23016;BME280;11674;52.428;13.584;2022-12-29T04:26:06;100243.66;;;11.66;84.50
23016;BME280;11674;52.428;13.584;2022-12-29T04:31:43;100259.09;;;11.72;84.51
23016;BME280;11674;52.428;13.584;2022-12-29T04:36:51;100240.97;;;11.74;84.66
23016;BME280;11674;52.428;13.584;2022-12-29T04:41:59;100243.44;;;11.76;84.70
23016;BME280;11674;52.428;13.584;2022-12-29T04:47:06;100238.19;;;11.74;84.68
23016;BME280;11674;52.428;13.584;2022-12-29T04:52:29;100232.31;;;11.76;84.49
23016;BME280;11674;52.428;13.584;2022-12-29T04:57:37;100222.06;;;11.76;84.61
23016;BME280;11674;52.428;13.584;2022-12-29T05:02:48;100233.16;;;11.76;84.71
23016;BME280;11674;52.428;13.584;2022-12-29T05:07:55;100226.78;;;11.76;84.56
23016;BME280;11674;52.428;13.584;2022-12-29T05:13:09;100225.63;;;11.77;84.86
23016;BME280;11674;52.428;13.584;2022-12-29T05:18:16;100228.41;;;11.77;84.54
23016;BME280;11674;52.428;13.584;2022-12-29T05:23:24;100215.34;;;11.77;84.57
23016;BME280;11674;52.428;13.584;2022-12-29T05:28:35;100196.69;;;11.78;84.80
23016;BME280;11674;52.428;13.584;2022-12-29T05:33:46;100203.09;;;11.78;84.64
23016;BME280;11674;52.428;13.584;2022-12-29T05:38:53;100181.69;;;11.79;84.67
23016;BME280;11674;52.428;13.584;2022-12-29T05:44:00;100188.25;;;11.83;84.81
23016;BME280;11674;52.428;13.584;2022-12-29T05:49:34;100183.22;;;11.85;84.95
23016;BME280;11674;52.428;13.584;2022-12-29T05:55:04;100191.75;;;11.88;84.90
23016;BME280;11674;52.428;13.584;2022-12-29T06:00:13;100196.66;;;11.91;84.73
23016;BME280;11674;52.428;13.584;2022-12-29T06:05:21;100185.44;;;11.96;84.94
23016;BME280;11674;52.428;13.584;2022-12-29T06:10:28;100182.66;;;11.96;85.01
23016;BME280;11674;52.428;13.584;2022-12-29T06:15:39;100172.38;;;11.97;84.93
23016;BME280;11674;52.428;13.584;2022-12-29T06:20:46;100176.78;;;11.98;84.85
23016;BME280;11674;52.428;13.584;2022-12-29T06:25:53;100179.56;;;11.98;85.04
23016;BME280;11674;52.428;13.584;2022-12-29T06:31:00;100177.94;;;11.97;85.01
23016;BME280;11674;52.428;13.584;2022-12-29T06:36:07;100179.88;;;11.96;85.06
23016;BME280;11674;52.428;13.584;2022-12-29T06:41:14;100179.88;;;11.96;84.95
23016;BME280;11674;52.428;13.584;2022-12-29T06:46:40;100185.44;;;11.96;85.06
23016;BME280;11674;52.428;13.584;2022-12-29T06:51:47;100189.88;;;11.97;84.85
23016;BME280;11674;52.428;13.584;2022-12-29T06:56:54;100193.16;;;11.99;84.73
23016;BME280;11674;52.428;13.584;2022-12-29T07:02:01;100204.28;;;11.99;85.01
23016;BME280;11674;52.428;13.584;2022-12-29T07:07:08;100197.38;;;11.97;84.83
23016;BME280;11674;52.428;13.584;2022-12-29T07:12:15;100208.00;;;11.95;84.84
23016;BME280;11674;52.428;13.584;2022-12-29T07:17:22;100208.13;;;11.90;84.59
23016;BME280;11674;52.428;13.584;2022-12-29T07:22:29;100204.31;;;11.86;84.68
23016;BME280;11674;52.428;13.584;2022-12-29T07:27:36;100212.47;;;11.82;84.82
23016;BME280;11674;52.428;13.584;2022-12-29T07:32:43;100211.31;;;11.83;84.71
23016;BME280;11674;52.428;13.584;2022-12-29T07:37:50;100209.03;;;11.85;84.66
23016;BME280;11674;52.428;13.584;2022-12-29T07:42:57;100206.69;;;11.92;84.71
23016;BME280;11674;52.428;13.584;2022-12-29T07:48:10;100198.22;;;11.97;84.82
23016;BME280;11674;52.428;13.584;2022-12-29T07:53:17;100208.88;;;12.04;84.74
23016;BME280;11674;52.428;13.584;2022-12-29T07:58:24;100208.47;;;12.10;84.75
23016;BME280;11674;52.428;13.584;2022-12-29T08:03:31;100200.84;;;12.16;85.13
23016;BME280;11674;52.428;13.584;2022-12-29T08:08:38;100201.81;;;12.20;85.11
23016;BME280;11674;52.428;13.584;2022-12-29T08:13:45;100200.25;;;12.27;85.05
23016;BME280;11674;52.428;13.584;2022-12-29T08:18:52;100212.56;;;12.35;84.96
23016;BME280;11674;52.428;13.584;2022-12-29T08:23:59;100195.94;;;12.43;85.38
23016;BME280;11674;52.428;13.584;2022-12-29T08:29:06;100182.41;;;12.50;85.50
23016;BME280;11674;52.428;13.584;2022-12-29T08:34:13;100199.81;;;12.56;85.14
23016;BME280;11674;52.428;13.584;2022-12-29T08:39:20;100204.09;;;12.62;85.26
23016;BME280;11674;52.428;13.584;2022-12-29T08:44:27;100193.16;;;12.65;85.33
23016;BME280;11674;52.428;13.584;2022-12-29T08:49:34;100200.03;;;12.68;85.25
23016;BME280;11674;52.428;13.584;2022-12-29T08:54:41;100196.13;;;12.69;85.26
23016;BME280;11674;52.428;13.584;2022-12-29T08:59:48;100191.50;;;12.64;85.01
23016;BME280;11674;52.428;13.584;2022-12-29T09:04:55;100204.41;;;12.60;85.21
23016;BME280;11674;52.428;13.584;2022-12-29T09:10:03;100183.81;;;12.61;85.25
23016;BME280;11674;52.428;13.584;2022-12-29T09:15:10;100192.84;;;12.67;85.06
23016;BME280;11674;52.428;13.584;2022-12-29T09:20:19;100184.53;;;12.75;85.26
23016;BME280;11674;52.428;13.584;2022-12-29T09:25:33;100182.81;;;12.88;85.51
23016;BME280;11674;52.428;13.584;2022-12-29T09:30:41;100188.94;;;12.98;85.56
23016;BME280;11674;52.428;13.584;2022-12-29T09:35:53;100173.78;;;13.13;85.76
23016;BME280;11674;52.428;13.584;2022-12-29T09:41:25;100171.53;;;13.32;85.88
23016;BME280;11674;52.428;13.584;2022-12-29T09:51:41;100143.47;;;13.76;85.88
23016;BME280;11674;52.428;13.584;2022-12-29T09:56:52;100134.09;;;13.97;85.79
23016;BME280;11674;52.428;13.584;2022-12-29T10:02:27;100144.59;;;14.17;85.67
23016;BME280;11674;52.428;13.584;2022-12-29T10:07:52;100148.53;;;14.42;85.44
23016;BME280;11674;52.428;13.584;2022-12-29T10:18:20;100141.06;;;14.71;84.73
23016;BME280;11674;52.428;13.584;2022-12-29T10:23:36;100150.88;;;14.86;84.56
23016;BME280;11674;52.428;13.584;2022-12-29T10:28:56;100140.84;;;14.85;84.04
23016;BME280;11674;52.428;13.584;2022-12-29T10:34:14;100149.09;;;14.81;83.49
23016;BME280;11674;52.428;13.584;2022-12-29T10:39:45;100151.06;;;14.81;82.58
23016;BME280;11674;52.428;13.584;2022-12-29T10:44:54;100132.00;;;14.83;82.40
23016;BME280;11674;52.428;13.584;2022-12-29T10:50:02;100142.50;;;14.86;82.22
23016;BME280;11674;52.428;13.584;2022-12-29T10:55:20;100134.63;;;14.88;81.80
23016;BME280;11674;52.428;13.584;2022-12-29T11:00:28;100140.88;;;15.14;82.98
23016;BME280;11674;52.428;13.584;2022-12-29T11:05:49;100137.91;;;15.19;82.69
23016;BME280;11674;52.428;13.584;2022-12-29T11:11:00;100129.25;;;15.12;82.83
23016;BME280;11674;52.428;13.584;2022-12-29T11:16:11;100135.69;;;15.04;82.49
23016;BME280;11674;52.428;13.584;2022-12-29T11:21:36;100141.81;;;14.97;82.20
23016;BME280;11674;52.428;13.584;2022-12-29T11:26:43;100150.22;;;14.89;82.29
23016;BME280;11674;52.428;13.584;2022-12-29T11:31:58;100155.03;;;14.71;81.88
23016;BME280;11674;52.428;13.584;2022-12-29T11:37:18;100155.75;;;14.34;80.81
23016;BME280;11674;52.428;13.584;2022-12-29T11:42:48;100183.50;;;14.14;81.54
23016;BME280;11674;52.428;13.584;2022-12-29T11:48:17;100193.50;;;13.89;80.74
23016;BME280;11674;52.428;13.584;2022-12-29T11:53:38;100184.66;;;13.31;79.88
23016;BME280;11674;52.428;13.584;2022-12-29T11:58:46;100185.19;;;12.72;80.13
23016;BME280;11674;52.428;13.584;2022-12-29T12:03:58;100175.09;;;12.32;81.75
23016;BME280;11674;52.428;13.584;2022-12-29T12:09:16;100174.66;;;12.17;82.51
23016;BME280;11674;52.428;13.584;2022-12-29T12:14:40;100174.25;;;12.10;83.10
23016;BME280;11674;52.428;13.584;2022-12-29T12:25:35;100207.75;;;12.05;83.37
23016;BME280;11674;52.428;13.584;2022-12-29T12:30:48;100203.06;;;11.92;83.59
23016;BME280;11674;52.428;13.584;2022-12-29T12:41:26;100197.94;;;11.58;83.09
23016;BME280;11674;52.428;13.584;2022-12-29T12:57:26;100159.94;;;11.59;83.73
23016;BME280;11674;52.428;13.584;2022-12-29T13:03:03;100169.88;;;11.73;83.60
23016;BME280;11674;52.428;13.584;2022-12-29T13:24:28;100189.84;;;12.33;83.22
23016;BME280;11674;52.428;13.584;2022-12-29T13:29:44;100188.53;;;12.61;82.67
23016;BME280;11674;52.428;13.584;2022-12-29T13:40:26;100181.38;;;12.38;82.33
23016;BME280;11674;52.428;13.584;2022-12-29T13:45:39;100187.31;;;12.23;82.19
23016;BME280;11674;52.428;13.584;2022-12-29T13:50:57;100186.72;;;12.12;82.35
23016;BME280;11674;52.428;13.584;2022-12-29T13:56:16;100196.63;;;12.05;82.40
23016;BME280;11674;52.428;13.584;2022-12-29T14:01:40;100195.88;;;11.91;82.61
23016;BME280;11674;52.428;13.584;2022-12-29T14:07:13;100195.47;;;11.84;82.88
23016;BME280;11674;52.428;13.584;2022-12-29T14:12:46;100206.38;;;11.80;82.95
23016;BME280;11674;52.428;13.584;2022-12-29T14:18:14;100204.53;;;11.76;83.28
23016;BME280;11674;52.428;13.584;2022-12-29T14:23:41;100201.75;;;11.76;83.28
23016;BME280;11674;52.428;13.584;2022-12-29T14:28:48;100208.47;;;11.75;83.24
23016;BME280;11674;52.428;13.584;2022-12-29T14:39:38;100210.09;;;11.76;83.32
23016;BME280;11674;52.428;13.584;2022-12-29T14:50:14;100219.13;;;11.95;83.93
23016;BME280;11674;52.428;13.584;2022-12-29T15:00:45;100228.28;;;12.17;83.56
23016;BME280;11674;52.428;13.584;2022-12-29T15:06:15;100235.59;;;12.27;83.55
23016;BME280;11674;52.428;13.584;2022-12-29T15:11:24;100227.63;;;12.34;83.59
23016;BME280;11674;52.428;13.584;2022-12-29T15:16:33;100243.56;;;12.42;83.22
23016;BME280;11674;52.428;13.584;2022-12-29T15:21:41;100248.38;;;12.50;82.99
23016;BME280;11674;52.428;13.584;2022-12-29T15:26:53;100264.63;;;12.56;82.74
23016;BME280;11674;52.428;13.584;2022-12-29T15:32:02;100268.47;;;12.69;83.18
23016;BME280;11674;52.428;13.584;2022-12-29T15:37:40;100276.91;;;12.77;83.20
23016;BME280;11674;52.428;13.584;2022-12-29T15:48:24;100283.34;;;12.64;82.40
23016;BME280;11674;52.428;13.584;2022-12-29T15:53:32;100290.47;;;12.57;82.53
23016;BME280;11674;52.428;13.584;2022-12-29T15:58:50;100297.31;;;12.51;82.44
23016;BME280;11674;52.428;13.584;2022-12-29T16:03:58;100302.50;;;12.44;82.54
23016;BME280;11674;52.428;13.584;2022-12-29T16:09:15;100314.34;;;12.36;82.70
23016;BME280;11674;52.428;13.584;2022-12-29T16:14:42;100313.97;;;12.29;82.66
23016;BME280;11674;52.428;13.584;2022-12-29T16:20:01;100318.00;;;12.23;82.51
23016;BME280;11674;52.428;13.584;2022-12-29T16:25:17;100326.94;;;12.20;82.91
23016;BME280;11674;52.428;13.584;2022-12-29T16:30:27;100338.19;;;12.15;82.98
23016;BME280;11674;52.428;13.584;2022-12-29T16:51:16;100366.94;;;12.10;82.99
23016;BME280;11674;52.428;13.584;2022-12-29T16:56:27;100354.47;;;12.08;83.00
23016;BME280;11674;52.428;13.584;2022-12-29T17:01:38;100358.69;;;12.05;82.89
23016;BME280;11674;52.428;13.584;2022-12-29T17:06:45;100366.94;;;12.10;83.00
23016;BME280;11674;52.428;13.584;2022-12-29T17:11:55;100378.06;;;12.10;82.63
23016;BME280;11674;52.428;13.584;2022-12-29T17:17:05;100376.53;;;12.04;82.72
23016;BME280;11674;52.428;13.584;2022-12-29T17:22:25;100387.44;;;12.01;82.66
23016;BME280;11674;52.428;13.584;2022-12-29T17:27:38;100393.00;;;12.01;82.98
23016;BME280;11674;52.428;13.584;2022-12-29T17:32:52;100391.56;;;12.03;83.08
23016;BME280;11674;52.428;13.584;2022-12-29T17:37:59;100387.00;;;12.07;82.92
23016;BME280;11674;52.428;13.584;2022-12-29T17:43:08;100386.91;;;12.12;83.15
23016;BME280;11674;52.428;13.584;2022-12-29T17:48:18;100394.84;;;12.19;83.03
23016;BME280;11674;52.428;13.584;2022-12-29T17:53:28;100398.66;;;12.23;82.97
23016;BME280;11674;52.428;13.584;2022-12-29T17:58:35;100392.88;;;12.19;82.77
23016;BME280;11674;52.428;13.584;2022-12-29T18:03:42;100403.47;;;12.17;82.50
23016;BME280;11674;52.428;13.584;2022-12-29T18:08:49;100399.06;;;12.16;82.46
23016;BME280;11674;52.428;13.584;2022-12-29T18:13:56;100396.69;;;12.10;82.52
23016;BME280;11674;52.428;13.584;2022-12-29T18:19:03;100404.22;;;11.96;82.29
23016;BME280;11674;52.428;13.584;2022-12-29T18:24:13;100400.09;;;11.80;82.41
23016;BME280;11674;52.428;13.584;2022-12-29T18:29:20;100416.75;;;11.66;82.42
23016;BME280;11674;52.428;13.584;2022-12-29T18:34:27;100413.91;;;11.53;82.38
23016;BME280;11674;52.428;13.584;2022-12-29T18:39:34;100427.44;;;11.41;82.60
23016;BME280;11674;52.428;13.584;2022-12-29T18:44:41;100426.41;;;11.37;82.58
23016;BME280;11674;52.428;13.584;2022-12-29T18:49:48;100440.31;;;11.37;82.84
23016;BME280;11674;52.428;13.584;2022-12-29T18:54:55;100431.66;;;11.38;83.07
23016;BME280;11674;52.428;13.584;2022-12-29T19:00:02;100436.69;;;11.36;83.04
23016;BME280;11674;52.428;13.584;2022-12-29T19:05:30;100419.72;;;11.38;83.45
23016;BME280;11674;52.428;13.584;2022-12-29T19:10:39;100436.09;;;11.39;83.32
23016;BME280;11674;52.428;13.584;2022-12-29T19:15:46;100444.09;;;11.41;83.42
23016;BME280;11674;52.428;13.584;2022-12-29T19:20:54;100446.28;;;11.44;83.81
23016;BME280;11674;52.428;13.584;2022-12-29T19:26:01;100440.94;;;11.47;83.65
23016;BME280;11674;52.428;13.584;2022-12-29T19:31:08;100454.44;;;11.54;83.76
23016;BME280;11674;52.428;13.584;2022-12-29T19:36:15;100459.38;;;11.57;84.02
23016;BME280;11674;52.428;13.584;2022-12-29T19:41:23;100461.59;;;11.60;83.79
23016;BME280;11674;52.428;13.584;2022-12-29T19:46:29;100462.72;;;11.59;84.00
23016;BME280;11674;52.428;13.584;2022-12-29T19:51:36;100461.34;;;11.56;83.72
23016;BME280;11674;52.428;13.584;2022-12-29T19:56:43;100476.66;;;11.54;84.10
23016;BME280;11674;52.428;13.584;2022-12-29T20:01:50;100467.50;;;11.53;83.84
23016;BME280;11674;52.428;13.584;2022-12-29T20:07:04;100467.81;;;11.52;83.83
23016;BME280;11674;52.428;13.584;2022-12-29T20:12:12;100466.78;;;11.48;83.92
23016;BME280;11674;52.428;13.584;2022-12-29T20:17:18;100468.28;;;11.40;83.97
23016;BME280;11674;52.428;13.584;2022-12-29T20:22:25;100466.44;;;11.36;83.99
23016;BME280;11674;52.428;13.584;2022-12-29T20:27:32;100458.69;;;11.33;83.97
23016;BME280;11674;52.428;13.584;2022-12-29T20:32:39;100462.81;;;11.35;83.92
23016;BME280;11674;52.428;13.584;2022-12-29T20:37:46;100460.25;;;11.39;84.16
23016;BME280;11674;52.428;13.584;2022-12-29T20:42:53;100464.59;;;11.45;84.19
23016;BME280;11674;52.428;13.584;2022-12-29T20:48:00;100467.81;;;11.52;84.19
23016;BME280;11674;52.428;13.584;2022-12-29T20:53:07;100469.09;;;11.59;84.29
23016;BME280;11674;52.428;13.584;2022-12-29T20:58:14;100454.81;;;11.66;84.05
23016;BME280;11674;52.428;13.584;2022-12-29T21:03:21;100454.72;;;11.71;83.94
23016;BME280;11674;52.428;13.584;2022-12-29T21:08:29;100454.72;;;11.71;83.92
23016;BME280;11674;52.428;13.584;2022-12-29T21:13:37;100463.34;;;11.69;83.73
23016;BME280;11674;52.428;13.584;2022-12-29T21:18:43;100464.56;;;11.63;83.85
23016;BME280;11674;52.428;13.584;2022-12-29T21:23:51;100475.81;;;11.53;83.51
23016;BME280;11674;52.428;13.584;2022-12-29T21:28:58;100471.38;;;11.39;83.64
23016;BME280;11674;52.428;13.584;2022-12-29T21:34:08;100482.63;;;11.29;83.75
23016;BME280;11674;52.428;13.584;2022-12-29T21:39:14;100487.66;;;11.27;83.85
23016;BME280;11674;52.428;13.584;2022-12-29T21:44:21;100489.09;;;11.24;83.82
23016;BME280;11674;52.428;13.584;2022-12-29T21:49:28;100484.22;;;11.16;83.71
23016;BME280;11674;52.428;13.584;2022-12-29T21:54:35;100502.69;;;11.07;83.86
23016;BME280;11674;52.428;13.584;2022-12-29T21:59:42;100505.84;;;11.01;83.94
23016;BME280;11674;52.428;13.584;2022-12-29T22:04:49;100517.38;;;10.89;83.60
23016;BME280;11674;52.428;13.584;2022-12-29T22:09:56;100520.88;;;10.76;83.45
23016;BME280;11674;52.428;13.584;2022-12-29T22:15:04;100509.94;;;10.66;83.47
23016;BME280;11674;52.428;13.584;2022-12-29T22:20:11;100519.22;;;10.57;83.51
23016;BME280;11674;52.428;13.584;2022-12-29T22:25:19;100522.69;;;10.44;83.29
23016;BME280;11674;52.428;13.584;2022-12-29T22:30:27;100524.22;;;10.31;83.16
23016;BME280;11674;52.428;13.584;2022-12-29T22:35:33;100523.81;;;10.19;83.12
23016;BME280;11674;52.428;13.584;2022-12-29T22:40:40;100520.84;;;10.11;83.09
23016;BME280;11674;52.428;13.584;2022-12-29T22:45:47;100531.19;;;10.00;83.10
23016;BME280;11674;52.428;13.584;2022-12-29T22:50:54;100543.19;;;9.91;83.20
23016;BME280;11674;52.428;13.584;2022-12-29T22:56:03;100538.28;;;9.83;83.23
23016;BME280;11674;52.428;13.584;2022-12-29T23:01:12;100546.13;;;9.76;83.35
23016;BME280;11674;52.428;13.584;2022-12-29T23:06:19;100545.03;;;9.72;83.10
23016;BME280;11674;52.428;13.584;2022-12-29T23:11:27;100553.66;;;9.65;83.41
23016;BME280;11674;52.428;13.584;2022-12-29T23:16:33;100572.81;;;9.62;83.43
23016;BME280;11674;52.428;13.584;2022-12-29T23:21:40;100571.69;;;9.63;83.64
23016;BME280;11674;52.428;13.584;2022-12-29T23:26:47;100586.63;;;9.67;83.65
23016;BME280;11674;52.428;13.584;2022-12-29T23:31:54;100591.28;;;9.71;83.69
23016;BME280;11674;52.428;13.584;2022-12-29T23:37:01;100571.56;;;9.78;83.84
23016;BME280;11674;52.428;13.584;2022-12-29T23:42:08;100569.84;;;9.87;83.99
23016;BME280;11674;52.428;13.584;2022-12-29T23:47:15;100574.44;;;9.96;84.11
23016;BME280;11674;52.428;13.584;2022-12-29T23:52:22;100577.69;;;10.03;83.97
23016;BME280;11674;52.428;13.584;2022-12-29T23:57:29;100588.53;;;10.05;83.78
